This is the latest recevied weather packets stored in our database for station/object E22FEY-1. If no packets are shown the sender has not sent any weather packets the latest 10 day(s).
| Time | Temp. | Humidity | Pressure | Rain* | Wind** | Luminosity | Snow |
|---|---|---|---|---|---|---|---|
| 1777656882 | 32.78° C | 60% | 1009 hPa | - | - | 0 W/m² | - |
| 1777655957 | 32.78° C | 61% | 1009 hPa | - | - | 0 W/m² | - |
| 1777655032 | 33.33° C | 60% | 1010 hPa | - | - | 0 W/m² | - |
| 1777654108 | 33.33° C | 60% | 1010 hPa | - | - | 0 W/m² | - |
| 1777653184 | 33.33° C | 61% | 1010 hPa | - | - | 0 W/m² | - |
| 1777652259 | 33.33° C | 61% | 1010 hPa | - | - | 0 W/m² | - |
| 1777651335 | 33.33° C | 60% | 1010 hPa | - | - | 0 W/m² | - |
| 1777650410 | 33.33° C | 60% | 1010 hPa | - | - | 0 W/m² | - |
| 1777649486 | 32.78° C | 61% | 1010 hPa | - | - | 0 W/m² | - |
| 1777647634 | 33.33° C | 58% | 1009 hPa | - | - | 0 W/m² | - |
| 1777646709 | 32.22° C | 60% | 1009 hPa | - | - | 0 W/m² | - |
| 1777645783 | 33.33° C | 58% | 1009 hPa | - | - | 0 W/m² | - |
| 1777644859 | 32.78° C | 59% | 1009 hPa | - | - | 0 W/m² | - |
| 1777643935 | 33.33° C | 57% | 1009 hPa | - | - | 0 W/m² | - |
| 1777643010 | 33.33° C | 57% | 1008 hPa | - | - | 0 W/m² | - |
| 1777642086 | 33.89° C | 55% | 1008 hPa | - | - | 0 W/m² | - |
| 1777641161 | 33.33° C | 56% | 1008 hPa | - | - | 0 W/m² | - |
| 1777640236 | 33.89° C | 55% | 1008 hPa | - | - | 0 W/m² | - |
| 1777639312 | 33.33° C | 55% | 1008 hPa | - | - | 0 W/m² | - |
| 1777638387 | 33.89° C | 56% | 1007 hPa | - | - | 0 W/m² | - |
| 1777637463 | 33.89° C | 54% | 1007 hPa | - | - | 0 W/m² | - |
| 1777636538 | 34.44° C | 52% | 1007 hPa | - | - | 0 W/m² | - |
| 1777635614 | 34.44° C | 51% | 1007 hPa | - | - | 0 W/m² | - |
| 1777634688 | 35° C | 50% | 1007 hPa | - | - | 0 W/m² | - |
| 1777633764 | 36.67° C | 46% | 1006 hPa | - | - | 0 W/m² | - |
* Rain since midnight (hover to see other rain measurements)
** Current wind speed in m/s (hover to see current wind gust speed)